»·PEaware :: N750XP KSBA-O22

N750XP :: KSBA-O22

FLIGHT INFORMATION

Flight Status: Arrived
Operator: Privately registered:
United States
More flights under this callsign
Pilot: Lee W. (44)
Aircraft: CESSNA 750 CITATION 10
(C750)
More flights by this aircraft type
Origin: KSBA Santa Barbara Mun
United States
Destination: O22 Columbia
United States
More flights between these airports :: More routes between these airports
Route: +RZS TAFTO EHF LATON CZQ COGOL BAGBY HOFED
File this flight plan on PilotEdge
Remarks:
Altitude:
(Current/Filed)
42,000ft
Speed:
(Current/Filed)
500kts
Departed: 11-Feb-12 07:11 PM
Arrived: 11-Feb-12 07:57 PM
Distance/Time
Traveled:
218nm/0:46
Distance/Time
To Go:
Arrived

Flight Plot

Page will automatically refresh every two minutes.


Map Options




Map Legend


Flown Route
Filed Route
Departure Airport
Arrival Airport
Navaid (VOR, NDB)
Fix

Horizontal Profiles

Position Reports

Time Latitude Longitude Heading Altitude Ground
Speed
11-Feb-12 18:58 34.429083 -119.845332 350 15ft 0kts
11-Feb-12 18:59 34.429083 -119.845332 350 15ft 0kts
11-Feb-12 19:00 34.429083 -119.845332 350 15ft 0kts
11-Feb-12 19:01 34.429083 -119.845332 350 15ft 0kts
11-Feb-12 19:02 34.429083 -119.845332 350 15ft 0kts
11-Feb-12 19:03 34.429083 -119.845332 350 15ft 0kts
11-Feb-12 19:04 34.429083 -119.845332 350 15ft 0kts
11-Feb-12 19:05 34.428929 -119.843754 85 14ft 11kts
11-Feb-12 19:06 34.429000 -119.839804 88 15ft 11kts
11-Feb-12 19:07 34.429115 -119.835859 89 16ft 11kts
11-Feb-12 19:08 34.428570 -119.835426 191 16ft 0kts
11-Feb-12 19:09 34.427930 -119.835857 250 16ft 11kts
11-Feb-12 19:10 34.426515 -119.885522 268 1086ft 230kts
11-Feb-12 19:11 34.424456 -119.966222 267 3622ft 245kts
11-Feb-12 19:12 34.383544 -120.013767 159 6247ft 275kts
11-Feb-12 19:13 34.379204 -119.932636 31 7510ft 287kts
11-Feb-12 19:14 34.447991 -119.877268 29 8559ft 299kts
11-Feb-12 19:15 34.498862 -119.792928 58 7283ft 300kts
11-Feb-12 19:16 34.562535 -119.734813 25 8407ft 294kts
11-Feb-12 19:17 34.635228 -119.685124 25 10877ft 310kts
11-Feb-12 19:18 34.710638 -119.633516 23 13346ft 323kts
11-Feb-12 19:19 34.789490 -119.579453 23 15816ft 337kts
11-Feb-12 19:20 34.872751 -119.522205 23 18318ft 353kts
11-Feb-12 19:21 34.960386 -119.461818 22 20833ft 370kts
11-Feb-12 19:22 35.051240 -119.399061 22 23339ft 385kts
11-Feb-12 19:23 35.143147 -119.335407 22 25846ft 374kts
11-Feb-12 19:24 35.215400 -119.284718 24 28501ft 356kts
11-Feb-12 19:25 35.315489 -119.214062 25 31054ft 355kts
11-Feb-12 19:26 35.399370 -119.154712 26 32866ft 351kts
11-Feb-12 19:27 35.472585 -119.107920 9 33652ft 359kts
11-Feb-12 19:28 35.565892 -119.138342 337 34335ft 371kts
11-Feb-12 19:29 35.663770 -119.187733 337 34919ft 398kts
11-Feb-12 19:30 35.767450 -119.240198 337 36043ft 409kts
11-Feb-12 19:31 35.872053 -119.293295 337 37136ft 416kts
11-Feb-12 19:32 35.977803 -119.347096 337 38224ft 418kts
11-Feb-12 19:33 36.084189 -119.401390 337 39379ft 411kts
11-Feb-12 19:34 36.187113 -119.454073 337 40468ft 397kts
11-Feb-12 19:35 36.289826 -119.506757 336 40548ft 405kts
11-Feb-12 19:36 36.394415 -119.560670 336 40602ft 414kts
11-Feb-12 19:37 36.501384 -119.615926 337 40274ft 435kts
11-Feb-12 19:38 36.614622 -119.674586 338 40563ft 442kts
11-Feb-12 19:39 36.723139 -119.730877 336 41473ft 429kts
11-Feb-12 19:40 36.829943 -119.786625 334 42428ft 407kts
11-Feb-12 19:41 36.937623 -119.812138 359 42710ft 404kts
11-Feb-12 19:42 37.049881 -119.806210 359 42456ft 414kts
11-Feb-12 19:43 37.167403 -119.799587 0 41159ft 457kts
11-Feb-12 19:44 37.300573 -119.806476 339 36732ft 497kts
11-Feb-12 19:45 37.401436 -119.919713 319 31623ft 499kts
11-Feb-12 19:46 37.504848 -120.033114 318 26441ft 495kts
11-Feb-12 19:47 37.604942 -120.143532 318 22787ft 453kts
11-Feb-12 19:48 37.677278 -120.266792 305 18053ft 446kts
11-Feb-12 19:49 37.746433 -120.393271 308 13704ft 427kts
11-Feb-12 19:50 37.839663 -120.442002 7 9381ft 425kts
11-Feb-12 19:51 37.965746 -120.417698 21 4520ft 398kts
11-Feb-12 19:52 38.054717 -120.373168 22 4340ft 297kts
11-Feb-12 19:53 38.118534 -120.353172 322 4331ft 187kts
11-Feb-12 19:54 38.101760 -120.392827 200 4241ft 153kts
11-Feb-12 19:55 38.059073 -120.406047 195 2606ft 151kts
11-Feb-12 19:56 38.029325 -120.413616 274 2123ft 8kts
11-Feb-12 19:57 38.030249 -120.413916 346 2122ft 0kts
11-Feb-12 19:58 38.030249 -120.413916 346 2122ft 0kts
11-Feb-12 19:59 38.030249 -120.413916 346 2122ft 0kts
11-Feb-12 20:00 38.030249 -120.413916 346 2122ft 0kts

Navigation Log

Ident Type
Flight plan parsing failed, navigation log unavailable